Time;durP1;ratioP1;P1;durP2;ratioP2;P2;SDS_P1;SDS_P2;PMS_P1;PMS_P2;Temp;Humidity;BMP_temperature;BMP_pressure;BME280_temperature;BME280_humidity;BME280_pressure;Samples;Min_cycle;Max_cycle;Signal;HPM_P1;HPM_P2
2021/08/13 00:00:33;;;;;;;7.30;6.60;;;22.90;62.90;;;;;;1081380;54;20041;-73
2021/08/13 00:01:54;;;;;;;9.70;7.47;;;22.90;63.00;;;;;;1081679;54;20034;-73
2021/08/13 00:03:17;;;;;;;8.80;7.53;;;22.90;62.90;;;;;;1081707;54;20030;-72
2021/08/13 00:04:38;;;;;;;10.00;7.55;;;22.90;63.00;;;;;;1081362;54;20884;-74
2021/08/13 00:05:59;;;;;;;8.93;7.35;;;22.90;63.20;;;;;;1081606;54;20125;-73
2021/08/13 00:07:20;;;;;;;8.70;7.45;;;22.80;63.10;;;;;;1081382;54;20153;-73
2021/08/13 00:08:41;;;;;;;8.65;7.18;;;22.80;63.20;;;;;;1081894;39;20654;-73
2021/08/13 00:10:03;;;;;;;11.60;8.45;;;22.80;63.40;;;;;;1081367;54;20038;-72
2021/08/13 00:11:23;;;;;;;11.80;7.88;;;22.80;63.40;;;;;;1081360;54;20049;-73
2021/08/13 00:12:44;;;;;;;11.25;7.53;;;22.80;64.00;;;;;;1081459;54;20066;-72
2021/08/13 00:14:07;;;;;;;9.63;7.45;;;22.80;63.30;;;;;;1081510;54;20054;-73
2021/08/13 00:15:28;;;;;;;10.02;7.50;;;22.70;63.30;;;;;;1081343;54;20046;-73
2021/08/13 00:16:49;;;;;;;9.20;7.28;;;22.70;63.30;;;;;;1082397;54;20065;-72
2021/08/13 00:18:10;;;;;;;10.38;7.50;;;22.70;63.20;;;;;;1082154;54;20046;-72
2021/08/13 00:19:31;;;;;;;8.75;7.38;;;22.70;63.10;;;;;;1082130;54;20035;-75
2021/08/13 00:20:52;;;;;;;9.00;7.10;;;22.70;63.20;;;;;;1082086;54;20042;-73
2021/08/13 00:22:12;;;;;;;9.20;7.63;;;22.70;63.30;;;;;;1081492;54;20073;-73
2021/08/13 00:23:33;;;;;;;9.93;8.10;;;22.70;63.30;;;;;;1081365;54;20042;-73
2021/08/13 00:24:54;;;;;;;8.88;7.75;;;22.60;63.20;;;;;;1082294;39;20465;-74
2021/08/13 00:26:15;;;;;;;10.52;7.60;;;22.70;63.30;;;;;;1081543;54;20080;-72
2021/08/13 00:27:36;;;;;;;8.88;6.95;;;22.60;63.30;;;;;;1081637;54;20040;-73
2021/08/13 00:28:57;;;;;;;9.73;7.70;;;22.60;63.30;;;;;;1081532;54;20034;-75
2021/08/13 00:30:19;;;;;;;9.68;7.55;;;22.60;63.30;;;;;;1081151;54;20118;-74
2021/08/13 00:31:39;;;;;;;9.00;7.13;;;22.60;63.30;;;;;;1081472;54;20031;-73
2021/08/13 00:33:00;;;;;;;8.80;7.38;;;22.60;63.40;;;;;;1081546;54;20544;-74
2021/08/13 00:34:21;;;;;;;10.93;7.85;;;22.60;63.40;;;;;;1082020;54;20035;-74
2021/08/13 00:35:42;;;;;;;11.43;7.47;;;22.60;63.40;;;;;;1081624;54;20057;-73
2021/08/13 00:37:03;;;;;;;10.07;7.10;;;22.60;63.20;;;;;;1081758;54;20069;-72
2021/08/13 00:38:24;;;;;;;12.65;7.30;;;22.60;63.40;;;;;;1081966;54;20556;-73
2021/08/13 00:39:45;;;;;;;9.25;7.50;;;22.60;63.50;;;;;;1082436;54;20060;-72
2021/08/13 00:41:06;;;;;;;8.80;7.43;;;22.60;63.50;;;;;;1081274;47;20034;-74
2021/08/13 00:42:27;;;;;;;10.18;7.30;;;22.60;63.50;;;;;;1081518;54;20156;-73
2021/08/13 00:43:48;;;;;;;10.95;7.82;;;22.60;63.40;;;;;;1081964;39;20501;-73
2021/08/13 00:45:09;;;;;;;8.90;7.47;;;22.60;63.40;;;;;;1081883;54;20121;-73
2021/08/13 00:46:30;;;;;;;8.68;7.72;;;22.50;63.40;;;;;;1082421;39;20389;-73
2021/08/13 00:47:51;;;;;;;10.98;7.78;;;22.60;63.60;;;;;;1082007;54;20089;-73
2021/08/13 00:49:12;;;;;;;9.43;7.57;;;22.50;63.60;;;;;;1081889;54;20833;-73
2021/08/13 00:50:33;;;;;;;8.15;6.90;;;22.50;63.50;;;;;;1082151;54;20035;-74
2021/08/13 00:51:54;;;;;;;9.38;7.28;;;22.50;63.50;;;;;;1081615;54;20111;-73
2021/08/13 00:53:15;;;;;;;8.82;7.25;;;22.50;63.40;;;;;;1081449;54;20057;-73
2021/08/13 00:54:36;;;;;;;9.02;7.32;;;22.50;63.50;;;;;;1081769;54;20042;-73
2021/08/13 00:55:57;;;;;;;8.82;7.60;;;22.60;63.60;;;;;;1081625;47;20038;-73
2021/08/13 00:57:18;;;;;;;9.10;7.53;;;22.50;63.60;;;;;;1081452;54;20042;-73
2021/08/13 00:58:39;;;;;;;10.57;7.85;;;22.50;63.90;;;;;;1081341;54;20069;-73
2021/08/13 01:00:01;;;;;;;8.38;7.00;;;22.50;63.70;;;;;;1082199;39;20402;-73
2021/08/13 01:01:22;;;;;;;9.35;7.13;;;22.50;64.00;;;;;;1081865;54;20046;-73
2021/08/13 01:02:45;;;;;;;9.27;7.63;;;22.50;64.10;;;;;;1081451;54;20125;-73
2021/08/13 01:04:06;;;;;;;9.38;7.18;;;22.50;64.10;;;;;;1081508;54;20034;-73
2021/08/13 01:05:27;;;;;;;9.82;7.82;;;22.50;64.00;;;;;;1082576;31;20595;-74
2021/08/13 01:06:48;;;;;;;10.95;8.25;;;22.50;63.90;;;;;;1082293;54;20045;-73
2021/08/13 01:08:09;;;;;;;11.60;7.57;;;22.50;63.90;;;;;;1082657;39;20555;-74
2021/08/13 01:09:30;;;;;;;9.30;7.65;;;22.50;63.70;;;;;;1081877;54;20081;-73
2021/08/13 01:11:13;;;;;;;9.32;7.50;;;22.50;63.70;;;;;;1081685;54;20026;-73
2021/08/13 01:12:44;;;;;;;10.35;8.15;;;22.50;64.30;;;;;;1082136;54;20041;-73
2021/08/13 01:14:21;;;;;;;8.07;7.20;;;22.60;64.10;;;;;;1082283;54;20149;-73
2021/08/13 01:15:49;;;;;;;10.23;7.80;;;22.60;64.80;;;;;;1081848;54;20864;-73
2021/08/13 01:17:12;;;;;;;9.02;7.03;;;22.60;64.50;;;;;;1081071;47;20070;-73
2021/08/13 01:18:46;;;;;;;9.13;7.22;;;22.60;64.40;;;;;;1081618;54;20030;-73
2021/08/13 01:20:18;;;;;;;9.20;7.10;;;22.60;65.20;;;;;;1082231;39;20741;-73
2021/08/13 01:21:52;;;;;;;9.63;7.63;;;22.70;65.20;;;;;;1082036;54;20050;-73
2021/08/13 01:23:20;;;;;;;8.63;7.15;;;22.70;64.90;;;;;;1081237;54;20054;-73
2021/08/13 01:24:46;;;;;;;10.35;7.53;;;22.70;65.40;;;;;;1081798;54;20613;-73
2021/08/13 01:26:08;;;;;;;8.55;7.10;;;22.70;65.10;;;;;;1081776;54;20631;-73
2021/08/13 01:27:32;;;;;;;10.00;7.75;;;22.70;64.80;;;;;;1081591;54;20042;-73
2021/08/13 01:29:38;;;;;;;8.68;7.10;;;22.70;64.70;;;;;;1081612;54;20119;-73
2021/08/13 01:31:03;;;;;;;9.50;7.40;;;22.70;64.80;;;;;;1081162;54;20038;-73
2021/08/13 01:32:37;;;;;;;9.25;7.30;;;22.80;64.10;;;;;;1081922;54;20042;-73
2021/08/13 01:34:02;;;;;;;9.13;7.07;;;22.80;64.40;;;;;;1081740;54;20820;-73
2021/08/13 01:35:27;;;;;;;9.10;7.40;;;22.70;64.10;;;;;;1081532;54;20060;-73
2021/08/13 01:36:49;;;;;;;9.23;7.47;;;22.70;64.20;;;;;;1081095;54;20601;-73
2021/08/13 01:38:18;;;;;;;9.90;7.53;;;22.70;64.00;;;;;;1081465;47;20073;-73
2021/08/13 01:39:41;;;;;;;9.95;7.75;;;22.70;64.30;;;;;;1081358;47;20077;-73
2021/08/13 01:41:05;;;;;;;10.43;7.60;;;22.70;64.10;;;;;;1081589;54;20042;-73
2021/08/13 01:42:30;;;;;;;8.65;7.53;;;22.70;64.10;;;;;;1081890;54;20157;-73
2021/08/13 01:43:51;;;;;;;9.73;7.47;;;22.70;64.10;;;;;;1081653;54;20117;-73
2021/08/13 01:45:20;;;;;;;11.45;8.23;;;22.60;64.00;;;;;;1081540;47;20038;-73
2021/08/13 01:46:43;;;;;;;11.03;8.43;;;22.60;64.30;;;;;;1081695;54;20603;-73
2021/08/13 01:48:04;;;;;;;11.25;8.10;;;22.60;63.90;;;;;;1082079;54;20034;-73
2021/08/13 01:49:27;;;;;;;8.55;7.35;;;22.60;63.90;;;;;;1081663;54;20038;-73
2021/08/13 01:50:48;;;;;;;10.52;7.97;;;22.60;63.90;;;;;;1081501;47;20150;-73
2021/08/13 01:52:09;;;;;;;10.15;7.63;;;22.60;64.10;;;;;;1081827;54;20060;-73
2021/08/13 01:53:31;;;;;;;10.48;7.65;;;22.60;64.10;;;;;;1081636;54;20581;-73
2021/08/13 01:54:53;;;;;;;10.85;7.55;;;22.60;64.20;;;;;;1081723;54;20057;-73
2021/08/13 01:56:14;;;;;;;11.60;8.10;;;22.50;64.40;;;;;;1081691;54;20050;-73
2021/08/13 01:57:36;;;;;;;8.50;7.35;;;22.50;64.40;;;;;;1082239;54;20054;-73
2021/08/13 01:58:57;;;;;;;10.35;7.35;;;22.50;64.50;;;;;;1081761;54;20038;-73
2021/08/13 02:00:20;;;;;;;9.00;7.60;;;22.50;64.50;;;;;;1081661;54;20165;-73
2021/08/13 02:01:42;;;;;;;9.68;7.82;;;22.50;64.70;;;;;;1081243;54;20034;-73
2021/08/13 02:03:05;;;;;;;8.35;7.20;;;22.50;64.80;;;;;;1081310;54;20039;-73
2021/08/13 02:04:27;;;;;;;9.45;7.70;;;22.40;64.90;;;;;;1082100;54;20041;-73
2021/08/13 02:05:48;;;;;;;9.98;7.40;;;22.40;64.90;;;;;;1081895;54;20509;-73
2021/08/13 02:07:13;;;;;;;8.63;7.32;;;22.40;64.90;;;;;;1082070;39;20458;-73
2021/08/13 02:08:36;;;;;;;10.35;6.95;;;22.40;65.10;;;;;;1081620;54;20039;-74
2021/08/13 02:09:58;;;;;;;9.20;7.80;;;22.40;65.30;;;;;;1081844;46;20494;-73
2021/08/13 02:11:19;;;;;;;8.18;7.10;;;22.40;65.10;;;;;;1081516;54;20038;-73
2021/08/13 02:12:41;;;;;;;9.25;7.60;;;22.30;65.10;;;;;;1081617;54;20042;-73
2021/08/13 02:14:02;;;;;;;10.65;7.55;;;22.30;65.30;;;;;;1081588;54;20034;-73
2021/08/13 02:15:23;;;;;;;11.27;7.07;;;22.30;65.40;;;;;;1081552;54;20631;-73
2021/08/13 02:16:53;;;;;;;8.60;7.70;;;22.30;65.50;;;;;;1081287;54;20042;-73
2021/08/13 02:18:22;;;;;;;8.88;7.63;;;22.30;65.60;;;;;;1081575;54;20042;-73
2021/08/13 02:20:15;;;;;;;9.63;7.68;;;22.30;65.80;;;;;;1081657;54;20129;-74
2021/08/13 02:21:39;;;;;;;7.63;6.50;;;22.20;66.20;;;;;;1081633;54;20042;-73
2021/08/13 02:22:59;;;;;;;8.98;6.97;;;22.20;65.40;;;;;;1081267;54;20030;-73
2021/08/13 02:24:20;;;;;;;9.93;7.47;;;22.20;65.40;;;;;;1081625;54;20046;-73
2021/08/13 02:25:41;;;;;;;12.85;7.60;;;22.20;65.70;;;;;;1081556;47;20031;-73
2021/08/13 02:27:03;;;;;;;9.02;7.15;;;22.20;65.80;;;;;;1081127;54;20594;-73
2021/08/13 02:28:24;;;;;;;9.30;7.13;;;22.20;66.00;;;;;;1081888;54;20061;-72
2021/08/13 02:29:45;;;;;;;8.90;6.97;;;22.20;66.30;;;;;;1081541;54;20034;-73
2021/08/13 02:31:06;;;;;;;10.80;7.68;;;22.20;67.20;;;;;;1081225;54;20055;-73
2021/08/13 02:32:28;;;;;;;8.55;6.95;;;22.10;66.40;;;;;;1082043;54;20884;-73
2021/08/13 02:33:49;;;;;;;9.45;7.25;;;22.10;66.60;;;;;;1081818;54;20038;-74
2021/08/13 02:35:10;;;;;;;10.02;7.60;;;22.20;66.70;;;;;;1081730;54;20034;-73
2021/08/13 02:36:45;;;;;;;9.35;7.53;;;22.20;66.80;;;;;;1081572;54;20037;-73
2021/08/13 02:38:22;;;;;;;8.40;6.85;;;22.20;67.20;;;;;;1081759;54;20061;-73
2021/08/13 02:39:54;;;;;;;9.73;7.20;;;22.20;67.10;;;;;;1081110;54;20612;-73
2021/08/13 02:41:16;;;;;;;8.10;7.25;;;22.20;66.90;;;;;;1081520;54;20038;-73
2021/08/13 02:42:55;;;;;;;9.00;7.30;;;22.20;66.60;;;;;;1081755;54;20150;-73
2021/08/13 02:44:18;;;;;;;8.80;7.83;;;22.20;67.20;;;;;;1081843;54;20042;-74
2021/08/13 02:45:44;;;;;;;12.85;8.43;;;22.20;66.50;;;;;;1081589;54;20278;-73
2021/08/13 02:47:09;;;;;;;11.15;8.70;;;22.20;66.40;;;;;;1082206;39;20467;-73
2021/08/13 02:48:33;;;;;;;13.70;8.32;;;22.20;66.40;;;;;;1081857;54;20030;-73
2021/08/13 02:49:59;;;;;;;9.70;7.75;;;22.20;66.40;;;;;;1081744;54;20038;-73
2021/08/13 02:51:27;;;;;;;10.98;7.75;;;22.10;66.50;;;;;;1081311;54;20057;-73
2021/08/13 02:53:04;;;;;;;8.90;7.07;;;22.20;66.80;;;;;;1080994;54;20031;-72
2021/08/13 02:54:28;;;;;;;9.77;7.82;;;22.20;67.00;;;;;;1081630;54;20038;-73
2021/08/13 02:56:02;;;;;;;9.10;7.82;;;22.20;66.60;;;;;;1081742;54;20050;-73
2021/08/13 02:57:25;;;;;;;9.73;7.88;;;22.20;66.80;;;;;;1081952;54;20041;-73
2021/08/13 02:58:52;;;;;;;10.02;8.48;;;22.20;66.50;;;;;;1081414;54;20042;-73
2021/08/13 03:00:14;;;;;;;11.27;8.43;;;22.20;66.70;;;;;;1081682;39;20500;-73
2021/08/13 03:01:39;;;;;;;9.85;8.20;;;22.20;66.50;;;;;;1081361;54;20133;-73
2021/08/13 03:03:01;;;;;;;10.50;8.88;;;22.20;66.70;;;;;;1081341;54;20045;-73
2021/08/13 03:04:23;;;;;;;11.68;8.85;;;22.10;66.50;;;;;;1081785;54;20022;-72
2021/08/13 03:05:50;;;;;;;12.25;8.80;;;22.20;66.60;;;;;;1081753;54;20121;-73
2021/08/13 03:07:12;;;;;;;10.68;8.32;;;22.10;66.70;;;;;;1081438;54;20079;-72
2021/08/13 03:08:34;;;;;;;10.65;8.65;;;22.10;66.60;;;;;;1081924;54;20036;-72
2021/08/13 03:09:56;;;;;;;13.52;8.52;;;22.10;66.60;;;;;;1081581;54;20042;-73
2021/08/13 03:11:19;;;;;;;9.77;8.57;;;22.10;66.60;;;;;;1081465;54;20125;-73
2021/08/13 03:12:41;;;;;;;10.98;9.15;;;22.10;66.80;;;;;;1081369;54;20049;-73
2021/08/13 03:14:03;;;;;;;11.95;9.48;;;22.10;66.70;;;;;;1081524;47;20041;-73
2021/08/13 03:15:25;;;;;;;12.93;9.32;;;22.10;66.60;;;;;;1081568;54;20041;-73
2021/08/13 03:16:48;;;;;;;12.18;9.30;;;22.10;66.60;;;;;;1082130;31;20501;-72
2021/08/13 03:18:09;;;;;;;10.80;9.57;;;22.10;66.60;;;;;;1081704;54;20078;-72
2021/08/13 03:19:31;;;;;;;12.02;8.45;;;22.10;66.70;;;;;;1082222;54;20618;-73
2021/08/13 03:20:52;;;;;;;11.88;9.73;;;22.10;66.80;;;;;;1081912;54;20498;-72
2021/08/13 03:22:13;;;;;;;12.32;9.25;;;22.10;66.90;;;;;;1081181;47;20034;-73
2021/08/13 03:23:36;;;;;;;11.20;8.63;;;22.10;67.00;;;;;;1081410;39;20676;-73
2021/08/13 03:24:58;;;;;;;10.82;9.38;;;22.10;67.00;;;;;;1081140;54;20038;-73
2021/08/13 03:26:19;;;;;;;11.32;9.27;;;22.10;67.20;;;;;;1081568;54;20042;-73
2021/08/13 03:27:41;;;;;;;10.68;8.68;;;22.10;67.30;;;;;;1081807;54;20041;-73
2021/08/13 03:29:02;;;;;;;13.38;9.65;;;22.10;67.30;;;;;;1081693;54;20034;-73
2021/08/13 03:30:23;;;;;;;12.20;8.45;;;22.10;67.30;;;;;;1081518;54;20042;-73
2021/08/13 03:31:46;;;;;;;10.70;8.50;;;22.00;68.00;;;;;;1081724;54;20069;-73
2021/08/13 03:33:11;;;;;;;10.85;8.43;;;22.00;67.40;;;;;;1081158;47;20038;-73
2021/08/13 03:34:32;;;;;;;10.52;8.20;;;22.00;67.50;;;;;;1081708;54;20030;-73
2021/08/13 03:35:54;;;;;;;10.27;8.55;;;22.00;67.30;;;;;;1081272;54;20030;-73
2021/08/13 03:37:15;;;;;;;10.68;8.50;;;22.00;67.20;;;;;;1081401;54;20034;-73
2021/08/13 03:38:36;;;;;;;11.90;8.50;;;22.00;67.30;;;;;;1081667;54;20030;-72
2021/08/13 03:40:00;;;;;;;12.57;8.65;;;22.00;67.40;;;;;;1081506;54;20035;-73
2021/08/13 03:41:21;;;;;;;11.13;8.57;;;22.00;67.50;;;;;;1081265;54;20030;-73
2021/08/13 03:42:42;;;;;;;12.38;8.50;;;22.00;67.50;;;;;;1081336;47;20034;-73
2021/08/13 03:44:03;;;;;;;10.05;8.55;;;21.90;67.50;;;;;;1081462;47;20085;-72
2021/08/13 03:45:24;;;;;;;9.60;8.02;;;21.90;67.50;;;;;;1081526;39;20542;-73
2021/08/13 03:46:45;;;;;;;10.57;8.43;;;21.90;67.50;;;;;;1081199;54;20049;-73
2021/08/13 03:48:06;;;;;;;12.20;8.65;;;21.90;67.40;;;;;;1081504;47;20046;-73
2021/08/13 03:49:27;;;;;;;11.98;8.80;;;21.80;67.50;;;;;;1081715;54;20027;-72
2021/08/13 03:50:48;;;;;;;12.65;9.18;;;21.80;67.50;;;;;;1081124;54;20046;-73
2021/08/13 03:52:08;;;;;;;10.73;8.65;;;21.80;67.60;;;;;;1081040;54;20125;-72
2021/08/13 03:53:29;;;;;;;10.57;8.77;;;21.80;67.50;;;;;;1081107;54;20038;-73
2021/08/13 03:54:50;;;;;;;11.25;8.93;;;21.70;67.50;;;;;;1081586;54;20038;-72
2021/08/13 03:56:11;;;;;;;13.23;9.57;;;21.80;67.70;;;;;;1081984;54;20030;-74
2021/08/13 03:57:32;;;;;;;13.93;9.15;;;21.80;67.90;;;;;;1081753;54;20035;-73
2021/08/13 03:58:53;;;;;;;12.30;9.57;;;21.70;67.80;;;;;;1081507;54;20026;-73
2021/08/13 04:00:15;;;;;;;11.20;9.32;;;21.70;67.90;;;;;;1081273;54;20065;-74
2021/08/13 04:01:36;;;;;;;12.70;9.35;;;21.70;67.90;;;;;;1081344;49;20034;-72
2021/08/13 04:02:57;;;;;;;11.73;8.65;;;21.70;68.00;;;;;;1081251;54;20118;-73
2021/08/13 04:04:21;;;;;;;11.05;8.50;;;21.70;68.00;;;;;;1081471;54;20061;-73
2021/08/13 04:05:41;;;;;;;11.68;9.40;;;21.60;68.10;;;;;;1081644;54;20039;-72
2021/08/13 04:07:02;;;;;;;10.13;8.73;;;21.60;68.20;;;;;;1081250;54;20034;-73
2021/08/13 04:08:23;;;;;;;9.77;8.48;;;21.60;68.40;;;;;;1081656;54;20030;-73
2021/08/13 04:09:44;;;;;;;10.90;8.77;;;21.60;68.40;;;;;;1081002;54;20053;-73
2021/08/13 04:11:05;;;;;;;12.02;8.77;;;21.60;68.40;;;;;;1081346;54;20071;-73
2021/08/13 04:12:26;;;;;;;12.02;8.82;;;21.60;68.40;;;;;;1081536;54;20160;-73
2021/08/13 04:13:50;;;;;;;11.07;8.68;;;21.50;68.30;;;;;;1081172;54;20037;-73
2021/08/13 04:15:11;;;;;;;12.40;8.95;;;21.50;68.30;;;;;;1081584;54;20062;-73
2021/08/13 04:16:32;;;;;;;11.50;9.20;;;21.50;68.40;;;;;;1081114;54;20034;-73
2021/08/13 04:17:59;;;;;;;10.57;8.75;;;21.50;68.30;;;;;;1081471;54;20082;-73
2021/08/13 04:19:22;;;;;;;13.02;8.90;;;21.50;68.60;;;;;;1081420;47;20030;-73
2021/08/13 04:20:43;;;;;;;12.32;9.82;;;21.50;68.30;;;;;;1081278;54;20938;-72
2021/08/13 04:22:05;;;;;;;11.55;8.38;;;21.50;68.40;;;;;;1081202;54;20034;-73
2021/08/13 04:23:26;;;;;;;11.88;9.02;;;21.50;68.50;;;;;;1081529;39;20496;-73
2021/08/13 04:24:46;;;;;;;12.13;9.50;;;21.40;68.50;;;;;;1081133;54;20042;-73
2021/08/13 04:26:07;;;;;;;11.65;8.85;;;21.40;68.60;;;;;;1082373;31;20376;-72
2021/08/13 04:27:28;;;;;;;11.32;8.88;;;21.40;68.70;;;;;;1081873;54;20061;-73
2021/08/13 04:28:49;;;;;;;12.30;9.40;;;21.40;68.80;;;;;;1081504;54;20041;-73
2021/08/13 04:30:12;;;;;;;11.35;9.02;;;21.40;68.80;;;;;;1081358;39;20414;-72
2021/08/13 04:31:33;;;;;;;14.20;10.13;;;21.40;68.90;;;;;;1081691;54;20045;-73
2021/08/13 04:32:53;;;;;;;13.20;10.02;;;21.40;68.90;;;;;;1081561;54;20039;-73
2021/08/13 04:34:15;;;;;;;13.27;9.93;;;21.40;69.00;;;;;;1081879;54;20034;-73
2021/08/13 04:35:36;;;;;;;13.68;9.98;;;21.40;69.00;;;;;;1081241;54;20034;-74
2021/08/13 04:36:57;;;;;;;14.27;9.65;;;21.40;69.20;;;;;;1081407;54;20042;-73
2021/08/13 04:38:17;;;;;;;13.57;9.25;;;21.30;69.30;;;;;;1081684;54;20069;-73
2021/08/13 04:39:38;;;;;;;13.48;10.23;;;21.30;69.30;;;;;;1081343;54;20056;-72
2021/08/13 04:40:59;;;;;;;12.73;10.23;;;21.30;69.30;;;;;;1081047;54;20039;-73
2021/08/13 04:42:20;;;;;;;15.50;10.77;;;21.30;69.30;;;;;;1081593;54;20034;-73
2021/08/13 04:43:41;;;;;;;13.48;10.45;;;21.30;69.40;;;;;;1081274;54;20557;-73
2021/08/13 04:45:03;;;;;;;14.50;10.25;;;21.30;69.40;;;;;;1078325;54;20069;-72
2021/08/13 04:46:23;;;;;;;12.88;10.73;;;21.30;69.60;;;;;;1080074;54;20535;-73
2021/08/13 04:47:44;;;;;;;13.15;10.65;;;21.30;69.60;;;;;;1080268;54;20038;-72
2021/08/13 04:49:05;;;;;;;14.25;10.43;;;21.30;69.80;;;;;;1080814;54;20031;-73
2021/08/13 04:50:26;;;;;;;14.30;10.80;;;21.40;70.10;;;;;;1080823;54;20169;-73
2021/08/13 04:51:47;;;;;;;13.98;10.77;;;21.30;70.00;;;;;;1080162;47;20037;-72
2021/08/13 04:53:10;;;;;;;14.27;11.25;;;21.40;70.00;;;;;;1080620;54;20573;-73
2021/08/13 04:54:32;;;;;;;13.02;10.25;;;21.40;70.10;;;;;;1080906;54;20058;-73
2021/08/13 04:55:53;;;;;;;16.60;11.63;;;21.40;70.30;;;;;;1080699;54;20037;-73
2021/08/13 04:57:17;;;;;;;13.80;10.60;;;21.40;70.20;;;;;;1080037;47;20513;-74
2021/08/13 04:58:38;;;;;;;11.55;10.07;;;21.40;70.30;;;;;;1080876;54;20518;-72
2021/08/13 04:59:58;;;;;;;14.30;10.18;;;21.40;70.10;;;;;;1080984;54;20173;-72
2021/08/13 05:01:19;;;;;;;13.02;10.55;;;21.40;70.10;;;;;;1080700;54;20510;-72
2021/08/13 05:02:40;;;;;;;12.88;10.35;;;21.40;70.10;;;;;;1080912;39;20386;-72
2021/08/13 05:04:01;;;;;;;14.13;11.40;;;21.40;70.20;;;;;;1080246;54;20038;-72
2021/08/13 05:05:22;;;;;;;15.52;11.00;;;21.40;70.20;;;;;;1080500;54;20077;-72
2021/08/13 05:06:44;;;;;;;15.02;11.18;;;21.40;70.20;;;;;;1080579;54;20042;-73
2021/08/13 05:08:05;;;;;;;13.50;11.13;;;21.40;70.30;;;;;;1081137;54;20062;-72
2021/08/13 05:09:26;;;;;;;17.08;11.52;;;21.50;70.20;;;;;;1080477;54;20042;-72
2021/08/13 05:10:47;;;;;;;13.88;10.95;;;21.50;70.10;;;;;;1080222;54;20153;-73
2021/08/13 05:12:08;;;;;;;16.98;11.45;;;21.50;70.10;;;;;;1080884;54;20042;-72
2021/08/13 05:13:29;;;;;;;15.55;11.07;;;21.50;70.10;;;;;;1080904;39;21721;-72
2021/08/13 05:14:50;;;;;;;14.63;11.52;;;21.50;70.10;;;;;;1080393;54;20069;-72
2021/08/13 05:16:11;;;;;;;16.90;11.48;;;21.50;70.80;;;;;;1080901;54;20034;-72
2021/08/13 05:17:34;;;;;;;14.60;11.40;;;21.50;70.10;;;;;;1080777;54;20042;-73
2021/08/13 05:18:55;;;;;;;15.98;12.10;;;21.50;70.10;;;;;;1080840;54;20058;-73
2021/08/13 05:20:16;;;;;;;16.73;11.07;;;21.60;70.20;;;;;;1080847;54;20137;-72
2021/08/13 05:21:38;;;;;;;14.60;11.13;;;21.60;70.20;;;;;;1080659;54;20069;-73
2021/08/13 05:22:59;;;;;;;15.18;11.50;;;21.60;70.20;;;;;;1080884;54;20053;-72
2021/08/13 05:24:20;;;;;;;13.98;11.13;;;21.60;70.00;;;;;;1081226;54;20046;-73
2021/08/13 05:25:40;;;;;;;16.15;11.57;;;21.70;70.00;;;;;;1081343;54;20038;-72
2021/08/13 05:27:01;;;;;;;19.13;11.75;;;21.70;70.00;;;;;;1080903;54;20038;-72
2021/08/13 05:28:22;;;;;;;17.85;11.75;;;21.60;69.70;;;;;;1081239;54;20042;-71
2021/08/13 05:29:43;;;;;;;15.70;11.52;;;21.70;69.70;;;;;;1081535;54;20932;-71
2021/08/13 05:31:04;;;;;;;16.63;11.70;;;21.70;69.60;;;;;;1081020;54;20045;-71
2021/08/13 05:32:25;;;;;;;12.55;10.55;;;21.70;69.60;;;;;;1080653;54;20069;-72
2021/08/13 05:33:46;;;;;;;13.93;10.18;;;21.70;69.70;;;;;;1080900;54;20042;-71
2021/08/13 05:35:08;;;;;;;14.82;10.55;;;21.70;70.00;;;;;;1081605;54;20034;-72
2021/08/13 05:36:29;;;;;;;13.82;11.10;;;21.70;70.10;;;;;;1081202;54;20046;-71
2021/08/13 05:37:50;;;;;;;14.93;11.13;;;21.70;70.20;;;;;;1081090;54;20043;-71
2021/08/13 05:39:11;;;;;;;15.00;11.23;;;21.70;70.30;;;;;;1080439;54;20041;-71
2021/08/13 05:40:32;;;;;;;15.73;11.13;;;21.70;70.30;;;;;;1081278;54;20061;-71
2021/08/13 05:41:53;;;;;;;15.50;11.45;;;21.80;70.50;;;;;;1080931;39;20469;-71
2021/08/13 05:43:14;;;;;;;13.85;10.85;;;21.80;70.50;;;;;;1080637;54;20056;-71
2021/08/13 05:44:35;;;;;;;13.73;11.18;;;21.80;70.50;;;;;;1081284;54;20073;-71
2021/08/13 05:45:55;;;;;;;14.30;10.80;;;21.80;70.40;;;;;;1080893;54;20031;-72
2021/08/13 05:47:18;;;;;;;14.02;10.70;;;21.90;70.40;;;;;;1080984;47;20037;-73
2021/08/13 05:48:39;;;;;;;15.25;11.40;;;21.90;70.30;;;;;;1080661;47;20038;-72
2021/08/13 05:50:00;;;;;;;15.23;11.35;;;21.90;70.20;;;;;;1080544;54;20031;-73
2021/08/13 05:51:21;;;;;;;13.98;11.55;;;21.90;70.00;;;;;;1081076;54;20038;-72
2021/08/13 05:52:43;;;;;;;15.23;11.45;;;22.00;69.90;;;;;;1081365;54;20049;-73
2021/08/13 05:54:03;;;;;;;17.38;11.95;;;22.00;69.80;;;;;;1081125;39;20413;-73
2021/08/13 05:55:25;;;;;;;15.15;10.70;;;22.00;69.70;;;;;;1080922;54;20041;-73
2021/08/13 05:56:45;;;;;;;15.98;11.15;;;22.00;69.60;;;;;;1080845;47;20121;-73
2021/08/13 05:58:06;;;;;;;15.45;11.60;;;22.00;69.60;;;;;;1081248;39;20391;-73
2021/08/13 05:59:27;;;;;;;14.68;10.52;;;22.10;69.60;;;;;;1081391;54;20043;-73
2021/08/13 06:00:48;;;;;;;14.48;11.85;;;22.10;69.50;;;;;;1080902;54;20545;-73
2021/08/13 06:02:09;;;;;;;15.73;11.10;;;22.10;69.50;;;;;;1081063;54;20046;-74
2021/08/13 06:03:30;;;;;;;14.85;11.95;;;22.10;69.60;;;;;;1080889;54;20061;-74
2021/08/13 06:04:51;;;;;;;15.35;11.70;;;22.10;69.70;;;;;;1081075;54;20065;-74
2021/08/13 06:06:12;;;;;;;16.45;11.95;;;22.10;69.80;;;;;;1081148;54;20039;-73
2021/08/13 06:07:32;;;;;;;13.65;11.25;;;22.10;69.80;;;;;;1080915;54;20030;-73
2021/08/13 06:08:54;;;;;;;20.75;12.43;;;22.10;69.90;;;;;;1080551;54;20069;-72
2021/08/13 06:10:15;;;;;;;14.45;11.77;;;22.10;70.10;;;;;;1080985;47;20134;-72
2021/08/13 06:11:36;;;;;;;15.70;11.88;;;22.20;70.10;;;;;;1080902;47;20042;-72
2021/08/13 06:12:57;;;;;;;16.02;12.60;;;22.20;70.00;;;;;;1080696;54;20032;-73
2021/08/13 06:14:20;;;;;;;15.05;12.05;;;22.20;70.10;;;;;;1081423;39;20402;-74
2021/08/13 06:15:41;;;;;;;15.88;11.73;;;22.20;70.10;;;;;;1080638;54;20042;-73
2021/08/13 06:17:03;;;;;;;14.30;11.25;;;22.20;70.10;;;;;;1081201;54;20080;-73
2021/08/13 06:18:24;;;;;;;15.05;12.45;;;22.20;70.20;;;;;;1081066;54;20030;-73
2021/08/13 06:19:44;;;;;;;17.02;12.75;;;22.20;70.20;;;;;;1081227;54;20196;-73
2021/08/13 06:21:05;;;;;;;15.55;12.27;;;22.20;70.20;;;;;;1081051;54;20181;-73
2021/08/13 06:22:26;;;;;;;14.88;12.52;;;22.30;70.40;;;;;;1081544;54;20041;-74
2021/08/13 06:23:47;;;;;;;18.48;12.93;;;22.30;70.50;;;;;;1080618;54;20030;-73
2021/08/13 06:25:09;;;;;;;19.20;14.05;;;22.30;70.50;;;;;;1081300;54;20030;-73
2021/08/13 06:26:29;;;;;;;18.33;13.63;;;22.40;70.70;;;;;;1081538;54;20041;-74
2021/08/13 06:27:50;;;;;;;15.70;13.48;;;22.40;70.70;;;;;;1081585;54;20065;-73
2021/08/13 06:29:11;;;;;;;17.48;14.30;;;22.40;70.90;;;;;;1080901;54;20038;-73
2021/08/13 06:30:32;;;;;;;16.73;13.35;;;22.40;71.00;;;;;;1080300;54;20589;-73
2021/08/13 06:31:53;;;;;;;20.48;15.30;;;22.40;71.00;;;;;;1081270;54;20584;-73
2021/08/13 06:33:14;;;;;;;16.98;14.75;;;22.40;70.90;;;;;;1080538;54;20043;-74
2021/08/13 06:34:36;;;;;;;19.70;15.13;;;22.50;71.00;;;;;;1081264;54;20034;-73
2021/08/13 06:35:57;;;;;;;23.83;17.40;;;22.50;71.00;;;;;;1080788;54;20042;-74
2021/08/13 06:37:18;;;;;;;22.33;16.73;;;22.50;71.00;;;;;;1080089;47;20039;-73
2021/08/13 06:38:38;;;;;;;24.30;18.20;;;22.60;71.00;;;;;;1080832;47;20038;-74
2021/08/13 06:39:59;;;;;;;24.95;18.67;;;22.60;70.90;;;;;;1080760;54;20038;-73
2021/08/13 06:41:20;;;;;;;24.30;19.55;;;22.60;70.90;;;;;;1081046;54;20556;-73
2021/08/13 06:42:42;;;;;;;25.27;19.48;;;22.60;70.90;;;;;;1080098;54;20038;-73
2021/08/13 06:44:03;;;;;;;25.20;18.08;;;22.70;71.00;;;;;;1080836;54;20042;-73
2021/08/13 06:45:24;;;;;;;22.50;19.05;;;22.70;70.90;;;;;;1080277;54;20034;-73
2021/08/13 06:46:44;;;;;;;27.48;20.27;;;22.70;71.00;;;;;;1081030;31;20485;-73
2021/08/13 06:48:05;;;;;;;25.90;20.13;;;22.70;70.90;;;;;;1080602;54;20038;-73
2021/08/13 06:49:26;;;;;;;30.40;20.13;;;22.70;70.90;;;;;;1080766;54;20654;-73
2021/08/13 06:50:47;;;;;;;26.08;20.25;;;22.80;70.90;;;;;;1080747;54;20045;-74
2021/08/13 06:52:10;;;;;;;26.10;20.70;;;22.80;70.90;;;;;;1080760;54;20126;-73
2021/08/13 06:53:31;;;;;;;25.60;19.95;;;22.80;70.80;;;;;;1080458;54;20035;-73
2021/08/13 06:54:52;;;;;;;26.92;20.35;;;22.90;70.80;;;;;;1080680;54;20042;-73
2021/08/13 06:56:13;;;;;;;30.77;21.15;;;22.90;70.80;;;;;;1081283;54;20142;-73
2021/08/13 06:57:34;;;;;;;27.60;20.67;;;22.90;70.80;;;;;;1081353;54;20030;-74
2021/08/13 06:58:56;;;;;;;27.92;20.75;;;22.90;70.80;;;;;;1081025;54;20038;-73
2021/08/13 07:00:17;;;;;;;29.13;20.77;;;22.90;70.90;;;;;;1080472;54;20041;-73
2021/08/13 07:01:38;;;;;;;27.40;20.80;;;22.90;70.90;;;;;;1081063;54;20051;-73
2021/08/13 07:02:59;;;;;;;25.45;20.20;;;23.00;71.00;;;;;;1080560;54;20074;-73